Jena Marie C. — WDD4969 — position and weather

sailwx.info

Track history (hours):
 
Tides and Currents Weather Stations Pressure Air Temp Water Temp Dewpoint Dewpoint Depression Visibility Wind Speed Wind Dir Waves Ship Positions

Jena Marie C.

Owner: Scott C. Marine Towing, LLC, Marrero, LA. More information available from US FCC via Universal Licensing System and Coast Guard Vessel Documentation Center.

Last reported at 2015-Aug-04 15:31 UTC. Time now 2015-Aug-04 20:00 UTC.
Position N 29°56' W 090°08'.

Length 19 m; draft 2.5 m.

Type: Towing. MMSI: 367151880.

Date/timePositionNaut miles runAvg speedWind from/ knotsBaromVisibWave heightAir tempDewpointWater temp
2015-Aug-04 15:31N 29°56' W 090°08'4 4.0
2015-Aug-04 14:30N 29°56' W 090°04'4 0.3
2015-Aug-03 23:31N 29°56' W 089°59'24 0.7
2015-Aug-02 12:08N 29°60' W 090°27'5 0.2
2015-Aug-01 12:07N 29°57' W 090°23'  
2015-Jul-28 22:33N 29°58' W 090°02'0 0.1
2015-Jul-28 21:32N 29°58' W 090°02'0 0.0
2015-Jul-28 20:33N 29°58' W 090°02'3 2.4
2015-Jul-28 19:30N 29°60' W 089°60'1 0.9
2015-Jul-28 18:33N 29°60' W 090°01'2 2.1
2015-Jul-28 17:28N 29°58' W 090°02'1 0.6
2015-Jul-28 16:33N 29°57' W 090°01'0 0.1
2015-Jul-28 15:33N 29°57' W 090°01'6 6.1
2015-Jul-28 14:31N 29°55' W 090°08'  
2015-Jul-26 09:33N 29°56' W 090°12'9 1.8
2015-Jul-26 04:25N 29°57' W 090°02'1 0.9
2015-Jul-26 03:31N 29°58' W 090°02'2 2.2
2015-Jul-26 02:32N 29°60' W 090°00'2 2.2
2015-Jul-26 01:32N 29°58' W 090°02'0 0.3
2015-Jul-26 00:31N 29°58' W 090°02'1 0.6
2015-Jul-25 23:32N 29°57' W 090°02'6 1.3
2015-Jul-25 19:12N 29°56' W 090°08'3 3.6
2015-Jul-25 18:30N 29°55' W 090°05'3 3.6
2015-Jul-25 17:32N 29°57' W 090°03'  
Track history (hours):
 
Tides and Currents Weather Stations Pressure Air Temp Water Temp Dewpoint Dewpoint Depression Visibility Wind Speed Wind Dir Waves Ship Positions

Jena Marie C.

Owner: Scott C. Marine Towing, LLC, Marrero, LA. More information available from US FCC via Universal Licensing System and Coast Guard Vessel Documentation Center.

Last reported at 2015-Aug-04 15:31 UTC. Time now 2015-Aug-04 20:00 UTC.
Position N 29°56' W 090°08'.

Length 19 m; draft 2.5 m.

Type: Towing. MMSI: 367151880.

Date/timePositionNaut miles runAvg speedWind from/ knotsBaromVisibWave heightAir tempDewpointWater temp
2015-Aug-04 15:31N 29°56' W 090°08'4 4.0
2015-Aug-04 14:30N 29°56' W 090°04'4 0.3
2015-Aug-03 23:31N 29°56' W 089°59'24 0.7
2015-Aug-02 12:08N 29°60' W 090°27'5 0.2
2015-Aug-01 12:07N 29°57' W 090°23'  
2015-Jul-28 22:33N 29°58' W 090°02'0 0.1
2015-Jul-28 21:32N 29°58' W 090°02'0 0.0
2015-Jul-28 20:33N 29°58' W 090°02'3 2.4
2015-Jul-28 19:30N 29°60' W 089°60'1 0.9
2015-Jul-28 18:33N 29°60' W 090°01'2 2.1
2015-Jul-28 17:28N 29°58' W 090°02'1 0.6
2015-Jul-28 16:33N 29°57' W 090°01'0 0.1
2015-Jul-28 15:33N 29°57' W 090°01'6 6.1
2015-Jul-28 14:31N 29°55' W 090°08'  
2015-Jul-26 09:33N 29°56' W 090°12'9 1.8
2015-Jul-26 04:25N 29°57' W 090°02'1 0.9
2015-Jul-26 03:31N 29°58' W 090°02'2 2.2
2015-Jul-26 02:32N 29°60' W 090°00'2 2.2
2015-Jul-26 01:32N 29°58' W 090°02'0 0.3
2015-Jul-26 00:31N 29°58' W 090°02'1 0.6
2015-Jul-25 23:32N 29°57' W 090°02'6 1.3
2015-Jul-25 19:12N 29°56' W 090°08'3 3.6
2015-Jul-25 18:30N 29°55' W 090°05'3 3.6
2015-Jul-25 17:32N 29°57' W 090°03'  

Dump ship's entire track history